Ashland, Kentucky
Current Conditions -  °F | °C
As of 8:15 AM on Thursday 18 Dec 2014 (Local Time) from KDWU Reporting Station
Overcast Overcast  
Wind Chill: -5°   Ceiling: 2400
Heat Index: -2°   Visibility: 10mi
Dew Point: -8°   Wind: 5mph
Humidity: 64%   Direction: 10°N
Pressure: 30.27"   Gusts: NA
Location:  38.48°N, 82.64°W
Report Text: KDWU 181315Z AUTO 01004KT 10SM OVC024 M02/M08 A3027 RMK AO1
Loading
Personal Weather Stations






























Interactive Weather Map New forecast layout! Learn more

10-Day Weather Forecast

Advertisements
Track Severe Weather on mobile